Time;durP1;ratioP1;P1;durP2;ratioP2;P2;SDS_P1;SDS_P2;PMS_P1;PMS_P2;Temp;Humidity;BMP_temperature;BMP_pressure;BME280_temperature;BME280_humidity;BME280_pressure;Samples;Min_cycle;Max_cycle;Signal;HPM_P1;HPM_P2
2021/01/01 00:00:13;;;;;;;23.85;12.33;;;;;;;7.44;100.00;98536.31;1736477;82;21552;-77
2021/01/01 00:02:41;;;;;;;25.40;13.78;;;;;;;7.44;100.00;98532.21;1738414;82;21188;-78
2021/01/01 00:05:17;;;;;;;27.07;14.53;;;;;;;7.42;100.00;98528.44;1738565;82;21044;-75
2021/01/01 00:07:45;;;;;;;27.07;13.85;;;;;;;7.40;100.00;98527.95;1738432;82;21737;-78
2021/01/01 00:10:13;;;;;;;29.18;14.15;;;;;;;7.39;100.00;98525.53;1715063;82;21230;-78
2021/01/01 00:12:41;;;;;;;31.60;13.95;;;;;;;7.38;100.00;98528.02;1738544;82;21014;-77
2021/01/01 00:15:10;;;;;;;29.60;13.83;;;;;;;7.36;100.00;98531.63;1738751;82;21717;-76
2021/01/01 00:17:39;;;;;;;33.85;14.35;;;;;;;7.32;100.00;98521.91;1738697;82;21061;-78
2021/01/01 00:20:09;;;;;;;27.45;13.85;;;;;;;7.27;100.00;98526.16;1739066;81;21339;-77
2021/01/01 00:22:40;;;;;;;30.10;13.70;;;;;;;7.21;100.00;98521.41;1753919;81;21483;-76
2021/01/01 00:25:09;;;;;;;32.03;20.15;;;;;;;7.19;100.00;98513.30;1725947;83;21076;-77
2021/01/01 00:27:37;;;;;;;23.45;12.88;;;;;;;7.16;100.00;98507.91;1698828;83;20955;-75
2021/01/01 00:30:07;;;;;;;23.65;13.70;;;;;;;7.16;100.00;98513.38;1722620;83;20935;-75
2021/01/01 00:32:35;;;;;;;25.70;12.90;;;;;;;7.13;100.00;98505.02;1722582;82;21209;-75
2021/01/01 00:35:05;;;;;;;24.15;13.88;;;;;;;7.13;100.00;98505.02;1722063;83;21837;-76
2021/01/01 00:37:40;;;;;;;26.50;14.47;;;;;;;7.12;100.00;98510.23;1722493;83;21042;-76
2021/01/01 00:40:09;;;;;;;35.38;15.60;;;;;;;7.11;100.00;98505.89;1730781;81;21601;-75
2021/01/01 00:42:37;;;;;;;23.10;14.03;;;;;;;7.07;100.00;98502.99;1736116;82;21072;-75
2021/01/01 00:45:06;;;;;;;29.45;15.05;;;;;;;7.08;100.00;98503.23;1738215;81;22349;-76
2021/01/01 00:47:34;;;;;;;21.25;13.48;;;;;;;7.08;100.00;98509.26;1733705;81;21567;-75
2021/01/01 00:50:03;;;;;;;29.05;13.83;;;;;;;7.07;100.00;98492.64;1753625;81;21031;-75
2021/01/01 00:52:31;;;;;;;23.87;13.50;;;;;;;7.05;100.00;98492.16;1751388;81;21507;-75
2021/01/01 00:54:59;;;;;;;21.85;12.85;;;;;;;7.06;100.00;98500.58;1757850;81;21069;-76
2021/01/01 00:57:27;;;;;;;24.00;13.65;;;;;;;7.05;100.00;98483.41;1751170;81;23626;-75
2021/01/01 00:59:54;;;;;;;27.40;14.45;;;;;;;7.04;100.00;98483.16;1745130;80;21222;-76
2021/01/01 01:02:22;;;;;;;24.45;13.72;;;;;;;7.03;100.00;98491.11;1743464;82;21005;-75
2021/01/01 01:04:49;;;;;;;26.10;14.78;;;;;;;7.01;100.00;98488.45;1740249;81;21088;-74
2021/01/01 01:07:17;;;;;;;34.58;15.38;;;;;;;6.99;100.00;98494.78;1740262;82;21554;-75
2021/01/01 01:09:45;;;;;;;26.42;14.00;;;;;;;6.97;100.00;98495.11;1740247;82;21312;-74
2021/01/01 01:12:13;;;;;;;26.15;14.20;;;;;;;6.95;100.00;98491.33;1740222;82;21126;-74
2021/01/01 01:14:41;;;;;;;26.82;15.50;;;;;;;6.95;100.00;98489.16;1740265;82;20936;-76
2021/01/01 01:17:08;;;;;;;33.30;14.83;;;;;;;6.94;100.00;98478.00;1740237;82;21059;-76
2021/01/01 01:19:37;;;;;;;26.02;15.38;;;;;;;6.94;100.00;98484.83;1740177;82;21079;-74
2021/01/01 01:22:04;;;;;;;28.12;14.75;;;;;;;6.93;100.00;98464.15;1740303;82;23179;-73
2021/01/01 01:24:32;;;;;;;30.32;15.32;;;;;;;6.92;100.00;98466.63;1740216;82;21056;-72
2021/01/01 01:27:00;;;;;;;31.95;17.02;;;;;;;6.93;100.00;98475.06;1740324;82;20956;-72
2021/01/01 01:29:28;;;;;;;30.65;15.95;;;;;;;6.92;100.00;98462.54;1740303;82;21067;-71
2021/01/01 01:31:55;;;;;;;37.10;17.67;;;;;;;6.91;100.00;98467.75;1740314;82;21009;-71
2021/01/01 01:34:23;;;;;;;31.45;17.65;;;;;;;6.91;100.00;98465.03;1740283;82;21606;-72
2021/01/01 01:36:52;;;;;;;32.30;16.87;;;;;;;6.90;100.00;98462.05;1740206;81;21170;-72
2021/01/01 01:39:20;;;;;;;31.93;16.80;;;;;;;6.91;100.00;98461.73;1740297;82;21511;-72
2021/01/01 01:41:47;;;;;;;31.73;17.23;;;;;;;6.92;100.00;98454.36;1740269;82;22045;-72
2021/01/01 01:44:15;;;;;;;33.58;18.10;;;;;;;6.88;100.00;98455.55;1740336;81;21146;-72
2021/01/01 01:46:45;;;;;;;37.93;18.70;;;;;;;6.88;100.00;98455.55;1740265;82;21457;-73
2021/01/01 01:49:15;;;;;;;36.33;18.42;;;;;;;6.90;100.00;98453.87;1740425;82;21672;-72
2021/01/01 01:51:46;;;;;;;39.60;18.70;;;;;;;6.90;100.00;98454.67;1751895;82;21030;-73
2021/01/01 01:54:18;;;;;;;41.20;19.62;;;;;;;6.88;100.00;98453.39;1722245;82;21157;-72
2021/01/01 01:56:46;;;;;;;45.15;20.95;;;;;;;6.88;100.00;98444.64;1722261;83;21148;-74
2021/01/01 01:59:15;;;;;;;39.45;20.37;;;;;;;6.89;100.00;98445.44;1742970;82;21294;-75
2021/01/01 02:01:43;;;;;;;41.00;20.88;;;;;;;6.88;100.00;98443.84;1750736;81;21642;-75
2021/01/01 02:04:12;;;;;;;41.23;20.35;;;;;;;6.88;100.00;98442.47;1741143;82;21645;-75
2021/01/01 02:06:43;;;;;;;39.88;20.25;;;;;;;6.86;100.00;98428.34;1745506;82;21077;-75
2021/01/01 02:09:14;;;;;;;47.48;23.65;;;;;;;6.88;100.00;98437.82;1752483;82;21057;-75
2021/01/01 02:11:42;;;;;;;48.87;22.35;;;;;;;6.89;100.00;98424.98;1752219;81;21199;-78
2021/01/01 02:14:09;;;;;;;45.15;22.70;;;;;;;6.89;100.00;98424.98;1751311;82;20927;-73
2021/01/01 02:16:37;;;;;;;43.95;22.85;;;;;;;6.89;100.00;98417.60;1747822;82;21085;-73
2021/01/01 02:19:04;;;;;;;43.00;22.80;;;;;;;6.89;100.00;98418.16;1745330;82;21602;-73
2021/01/01 02:21:32;;;;;;;46.85;24.63;;;;;;;6.89;100.00;98422.25;1747453;82;21627;-73
2021/01/01 02:23:59;;;;;;;52.13;23.80;;;;;;;6.89;100.00;98410.78;1752194;82;21388;-73
2021/01/01 02:26:27;;;;;;;52.03;25.97;;;;;;;6.90;100.00;98414.31;1752145;82;21022;-73
2021/01/01 02:28:54;;;;;;;49.88;24.10;;;;;;;6.90;100.00;98405.56;1744287;82;20952;-73
2021/01/01 02:31:23;;;;;;;51.10;26.73;;;;;;;6.92;100.00;98399.80;1740264;81;21115;-73
2021/01/01 02:33:51;;;;;;;51.23;24.25;;;;;;;6.90;100.00;98397.38;1740380;82;21499;-73
2021/01/01 02:36:18;;;;;;;49.38;23.87;;;;;;;6.91;100.00;98395.45;1740360;82;21142;-73
2021/01/01 02:38:46;;;;;;;44.60;24.80;;;;;;;6.92;100.00;98392.41;1740226;82;21574;-73
2021/01/01 02:41:14;;;;;;;53.33;24.92;;;;;;;6.95;100.00;98390.94;1740216;82;20961;-72
2021/01/01 02:43:41;;;;;;;46.95;24.75;;;;;;;6.92;100.00;98384.22;1740262;82;20945;-72
2021/01/01 02:46:09;;;;;;;47.60;24.85;;;;;;;6.91;100.00;98379.89;1740284;81;21074;-72
2021/01/01 02:48:36;;;;;;;49.77;24.60;;;;;;;6.92;100.00;98387.52;1740358;82;21209;-72
2021/01/01 02:51:04;;;;;;;49.60;23.80;;;;;;;6.90;100.00;98390.56;1740156;82;20989;-72
2021/01/01 02:53:32;;;;;;;49.10;23.30;;;;;;;6.90;100.00;98387.03;1740223;82;21164;-72
2021/01/01 02:55:59;;;;;;;44.95;23.55;;;;;;;6.87;100.00;98387.11;1740245;82;20952;-72
2021/01/01 02:58:27;;;;;;;50.17;24.30;;;;;;;6.86;100.00;98377.31;1740231;82;21083;-72
2021/01/01 03:00:54;;;;;;;46.73;23.25;;;;;;;6.85;100.00;98372.18;1742815;82;21368;-72
2021/01/01 03:03:22;;;;;;;48.20;25.35;;;;;;;6.84;100.00;98370.58;1741817;82;20994;-75
2021/01/01 03:05:49;;;;;;;45.40;24.32;;;;;;;6.83;100.00;98367.61;1693294;84;21074;-75
2021/01/01 03:08:17;;;;;;;49.63;24.77;;;;;;;6.83;100.00;98367.61;1716612;82;21076;-77
2021/01/01 03:10:45;;;;;;;42.60;23.92;;;;;;;6.84;100.00;98365.12;1681223;85;21586;-73
2021/01/01 03:13:13;;;;;;;46.75;23.20;;;;;;;6.85;100.00;98353.09;1681199;85;23543;-79
2021/01/01 03:15:40;;;;;;;46.28;22.67;;;;;;;6.83;100.00;98351.23;1681158;85;21111;-77
2021/01/01 03:18:09;;;;;;;43.90;22.05;;;;;;;6.84;100.00;98344.09;1657764;85;21502;-76
2021/01/01 03:20:36;;;;;;;56.88;24.15;;;;;;;6.85;100.00;98348.99;1681163;85;21190;-76
2021/01/01 03:23:04;;;;;;;40.95;22.95;;;;;;;6.84;100.00;98344.66;1681235;85;21558;-76
2021/01/01 03:25:31;;;;;;;35.25;21.97;;;;;;;6.83;100.00;98338.97;1681234;85;21234;-76
2021/01/01 03:27:59;;;;;;;43.70;22.10;;;;;;;6.83;100.00;98338.97;1681189;85;20945;-76
2021/01/01 03:30:27;;;;;;;36.13;20.10;;;;;;;6.82;100.00;98334.07;1681191;85;21516;-76
2021/01/01 03:32:55;;;;;;;39.75;21.80;;;;;;;6.82;100.00;98331.91;1681229;85;21574;-74
2021/01/01 03:35:26;;;;;;;33.67;19.35;;;;;;;6.77;100.00;98327.41;1681224;85;21511;-76
2021/01/01 03:37:54;;;;;;;37.10;20.00;;;;;;;6.78;100.00;98329.02;1681134;85;23590;-75
2021/01/01 03:40:22;;;;;;;33.23;19.23;;;;;;;6.81;100.00;98328.94;1681131;85;20980;-75
2021/01/01 03:42:50;;;;;;;36.05;19.52;;;;;;;6.80;100.00;98325.41;1681205;85;21507;-74
2021/01/01 03:45:17;;;;;;;28.95;18.90;;;;;;;6.80;100.00;98321.88;1687811;84;21098;-74
2021/01/01 03:47:45;;;;;;;32.55;16.23;;;;;;;6.79;100.00;98318.91;1712329;82;21077;-74
2021/01/01 03:50:13;;;;;;;28.85;16.75;;;;;;;6.79;100.00;98316.17;1694782;84;21212;-74
2021/01/01 03:52:40;;;;;;;29.72;16.35;;;;;;;6.78;100.00;98320.03;1694767;84;21097;-73
2021/01/01 03:55:09;;;;;;;27.30;15.18;;;;;;;6.78;100.00;98308.55;1741559;82;21108;-74
2021/01/01 03:57:40;;;;;;;29.57;16.73;;;;;;;6.76;100.00;98301.81;1693205;84;21086;-74
2021/01/01 04:00:10;;;;;;;26.02;14.47;;;;;;;6.74;100.00;98307.59;1732730;82;21060;-74
2021/01/01 04:02:40;;;;;;;30.10;16.32;;;;;;;6.72;100.00;98304.94;1701854;82;21254;-75
2021/01/01 04:05:09;;;;;;;25.32;15.05;;;;;;;6.73;100.00;98301.89;1755350;81;21544;-75
2021/01/01 04:07:37;;;;;;;27.25;15.13;;;;;;;6.73;100.00;98297.00;1736555;82;21026;-75
2021/01/01 04:10:06;;;;;;;24.43;15.13;;;;;;;6.74;100.00;98286.33;1755352;81;21125;-75
2021/01/01 04:12:34;;;;;;;26.12;14.15;;;;;;;6.74;100.00;98271.33;1736530;82;21169;-76
2021/01/01 04:15:03;;;;;;;24.02;14.68;;;;;;;6.75;100.00;98260.10;1755500;81;21568;-75
2021/01/01 04:17:31;;;;;;;24.50;14.80;;;;;;;6.74;100.00;98269.97;1736702;82;21506;-75
2021/01/01 04:19:58;;;;;;;22.22;13.90;;;;;;;6.75;100.00;98283.28;1755481;81;21509;-75
2021/01/01 04:22:26;;;;;;;26.57;14.68;;;;;;;6.74;100.00;98276.22;1736594;82;21137;-76
2021/01/01 04:24:54;;;;;;;24.12;13.83;;;;;;;6.75;100.00;98279.19;1755480;81;21528;-75
2021/01/01 04:27:22;;;;;;;27.22;13.35;;;;;;;6.75;100.00;98279.19;1736624;82;21278;-73
2021/01/01 04:29:49;;;;;;;28.73;14.25;;;;;;;6.75;100.00;98280.55;1753223;81;21090;-73
2021/01/01 04:32:17;;;;;;;19.17;12.25;;;;;;;6.75;100.00;98282.48;1738233;82;20943;-73
2021/01/01 04:34:47;;;;;;;18.50;11.65;;;;;;;6.74;100.00;98287.70;1765901;81;21080;-72
2021/01/01 04:37:15;;;;;;;28.77;14.53;;;;;;;6.75;100.00;98317.37;1703934;83;21161;-73
2021/01/01 04:39:43;;;;;;;42.60;24.00;;;;;;;6.76;100.00;98333.18;1748464;81;21357;-73
2021/01/01 04:42:10;;;;;;;32.00;19.67;;;;;;;6.78;100.00;98332.30;1730332;82;20946;-74
2021/01/01 04:44:38;;;;;;;34.43;17.20;;;;;;;6.79;100.00;98319.70;1755471;81;21053;-73
2021/01/01 04:47:07;;;;;;;24.05;14.00;;;;;;;6.81;100.00;98320.75;1736646;82;21129;-73
2021/01/01 04:49:34;;;;;;;20.30;11.80;;;;;;;6.84;100.00;98316.02;1755506;81;21551;-74
2021/01/01 04:52:03;;;;;;;21.27;12.10;;;;;;;6.86;100.00;98316.50;1736621;82;21253;-80
2021/01/01 04:54:34;;;;;;;18.77;11.33;;;;;;;6.85;100.00;98314.89;1744560;81;20980;-80
2021/01/01 04:57:02;;;;;;;17.82;11.18;;;;;;;6.87;100.00;98307.19;1711290;83;20946;-78
2021/01/01 04:59:29;;;;;;;20.30;11.35;;;;;;;6.86;100.00;98306.39;1711285;83;20950;-83
2021/01/01 05:01:57;;;;;;;18.90;11.28;;;;;;;6.88;100.00;98299.25;1711296;83;21117;-81
2021/01/01 05:04:24;;;;;;;21.85;11.53;;;;;;;6.88;100.00;98296.52;1722535;83;21371;-76
2021/01/01 05:06:52;;;;;;;21.10;11.53;;;;;;;6.87;100.00;98292.99;1734816;82;21131;-84
2021/01/01 05:09:19;;;;;;;19.52;12.47;;;;;;;6.85;100.00;98282.16;1754152;81;20949;-83
2021/01/01 05:11:47;;;;;;;19.70;12.90;;;;;;;6.84;100.00;98282.72;1754207;81;21566;-82
2021/01/01 05:14:14;;;;;;;20.37;11.20;;;;;;;6.84;100.00;98280.55;1752430;81;21115;-79
2021/01/01 05:16:47;;;;;;;23.42;11.15;;;;;;;6.83;100.00;98280.31;1725617;83;21370;-78
2021/01/01 05:19:15;;;;;;;22.17;11.95;;;;;;;6.79;100.00;98278.80;1755797;81;21208;-78
2021/01/01 05:21:42;;;;;;;21.48;12.18;;;;;;;6.79;100.00;98278.80;1756225;81;20942;-78
2021/01/01 05:24:16;;;;;;;24.82;13.03;;;;;;;6.82;100.00;98265.08;1756275;81;21037;-77
2021/01/01 05:26:48;;;;;;;19.95;10.93;;;;;;;6.81;100.00;98276.55;1756299;81;21116;-72
2021/01/01 05:29:20;;;;;;;24.05;12.03;;;;;;;6.81;100.00;98271.09;1756390;81;21661;-71
2021/01/01 05:31:48;;;;;;;24.75;12.47;;;;;;;6.80;100.00;98264.59;1756212;81;20950;-71
2021/01/01 05:34:19;;;;;;;20.32;11.40;;;;;;;6.80;100.00;98279.59;1756314;81;21103;-71
2021/01/01 05:36:47;;;;;;;20.37;11.78;;;;;;;6.78;100.00;98270.37;1755951;81;21127;-71
2021/01/01 05:39:20;;;;;;;21.00;11.25;;;;;;;6.80;100.00;98280.95;1756336;81;21520;-71
2021/01/01 05:41:51;;;;;;;23.12;12.73;;;;;;;6.80;100.00;98274.14;1756401;81;21184;-72
2021/01/01 05:44:27;;;;;;;26.13;12.17;;;;;;;6.80;100.00;98272.77;1756442;81;21048;-72
2021/01/01 05:47:06;;;;;;;18.45;10.78;;;;;;;6.82;100.00;98274.62;1756290;81;21013;-71
2021/01/01 05:49:41;;;;;;;23.92;11.08;;;;;;;6.81;100.00;98273.02;1756278;81;21139;-72
2021/01/01 05:52:17;;;;;;;21.17;10.85;;;;;;;6.85;100.00;98270.69;1756405;81;21480;-71
2021/01/01 05:54:50;;;;;;;19.20;11.40;;;;;;;6.85;100.00;98268.52;1756278;81;21351;-72
2021/01/01 05:57:20;;;;;;;16.95;10.28;;;;;;;6.87;100.00;98271.73;1756273;81;20938;-71
2021/01/01 05:59:48;;;;;;;19.65;10.98;;;;;;;6.89;100.00;98274.38;1755938;81;21056;-75
2021/01/01 06:02:16;;;;;;;19.65;11.20;;;;;;;6.90;100.00;98278.70;1754977;81;21564;-73
2021/01/01 06:04:44;;;;;;;19.70;11.20;;;;;;;6.90;100.00;98278.70;1753030;81;21114;-72
2021/01/01 06:07:12;;;;;;;16.50;10.10;;;;;;;6.91;100.00;98277.58;1765622;81;21404;-78
2021/01/01 06:09:40;;;;;;;17.40;9.08;;;;;;;6.91;100.00;98277.58;1724542;82;21068;-77
2021/01/01 06:12:11;;;;;;;12.98;8.68;;;;;;;6.95;100.00;98280.44;1753371;81;21153;-77
2021/01/01 06:14:45;;;;;;;17.23;9.50;;;;;;;6.96;100.00;98278.75;1754924;81;21493;-80
2021/01/01 06:17:18;;;;;;;13.62;8.18;;;;;;;6.98;100.00;98286.62;1734906;82;21149;-80
2021/01/01 06:19:54;;;;;;;13.90;8.98;;;;;;;6.99;100.00;98290.95;1754878;81;21392;-74
2021/01/01 06:22:25;;;;;;;14.15;9.10;;;;;;;7.03;100.00;98296.56;1742215;82;21151;-72
2021/01/01 06:24:56;;;;;;;14.30;8.57;;;;;;;7.05;100.00;98299.77;1733192;82;21157;-74
2021/01/01 06:27:29;;;;;;;13.13;7.47;;;;;;;7.06;100.00;98297.28;1721129;83;21151;-75
2021/01/01 06:30:10;;;;;;;12.65;8.08;;;;;;;7.07;100.00;98292.87;1733381;82;21067;-79
2021/01/01 06:32:38;;;;;;;13.48;7.15;;;;;;;7.07;100.00;98298.33;1755003;81;21379;-83
2021/01/01 06:35:17;;;;;;;12.45;7.17;;;;;;;7.09;100.00;98300.73;1727391;81;21123;-82
2021/01/01 06:37:49;;;;;;;9.73;6.58;;;;;;;7.09;100.00;98297.44;1754981;81;21570;-80
2021/01/01 06:40:34;;;;;;;12.35;7.30;;;;;;;7.10;100.00;98303.14;1721957;83;21568;-82
2021/01/01 06:43:08;;;;;;;9.83;6.03;;;;;;;7.13;100.00;98303.05;1733575;82;21479;-80
2021/01/01 06:45:45;;;;;;;9.60;6.40;;;;;;;7.14;100.00;98302.73;1755271;81;22340;-80
2021/01/01 06:48:32;;;;;;;14.33;6.67;;;;;;;7.16;100.00;98306.50;1721996;83;21093;-79
2021/01/01 06:51:00;;;;;;;12.13;7.03;;;;;;;7.18;100.00;98309.72;1765342;81;21141;-74
2021/01/01 06:53:30;;;;;;;10.43;6.37;;;;;;;7.19;100.00;98316.22;1765327;81;21107;-75
2021/01/01 06:56:11;;;;;;;9.03;6.40;;;;;;;7.20;100.00;98317.82;1762298;81;21167;-74
2021/01/01 06:58:39;;;;;;;11.83;6.67;;;;;;;7.24;100.00;98322.06;1750018;81;21368;-73
2021/01/01 07:01:15;;;;;;;10.38;5.92;;;;;;;7.26;100.00;98321.98;1742266;81;21168;-81
2021/01/01 07:03:43;;;;;;;9.83;5.37;;;;;;;7.29;100.00;98328.16;1738201;82;21200;-80
2021/01/01 07:06:19;;;;;;;8.70;5.30;;;;;;;7.33;100.00;98332.42;1742337;82;21065;-83
2021/01/01 07:08:47;;;;;;;11.05;6.60;;;;;;;7.37;100.00;98338.03;1738316;82;21549;-79
2021/01/01 07:11:25;;;;;;;9.23;5.10;;;;;;;7.39;100.00;98337.14;1754942;81;21559;-76
2021/01/01 07:13:54;;;;;;;8.95;5.67;;;;;;;7.40;100.00;98344.21;1739737;82;20951;-78
2021/01/01 07:16:25;;;;;;;8.03;4.87;;;;;;;7.40;100.00;98346.94;1732498;82;21578;-75
2021/01/01 07:18:53;;;;;;;9.05;5.50;;;;;;;7.40;100.00;98348.30;1724988;81;21490;-74
2021/01/01 07:21:21;;;;;;;7.83;4.40;;;;;;;7.40;100.00;98359.23;1724847;83;21082;-76
2021/01/01 07:23:48;;;;;;;6.33;3.70;;;;;;;7.40;100.00;98361.39;1724974;83;21383;-77
2021/01/01 07:26:16;;;;;;;8.20;4.40;;;;;;;7.41;100.00;98364.92;1724928;83;21577;-78
2021/01/01 07:28:46;;;;;;;10.98;4.25;;;;;;;7.43;100.00;98373.03;1725073;81;21745;-74
2021/01/01 07:31:18;;;;;;;4.83;3.80;;;;;;;7.42;100.00;98366.53;1735739;81;21188;-75
2021/01/01 07:33:46;;;;;;;5.10;3.90;;;;;;;7.43;100.00;98379.06;1755157;81;26041;-75
2021/01/01 07:36:14;;;;;;;5.60;3.72;;;;;;;7.43;100.00;98381.79;1742414;82;21369;-72
2021/01/01 07:38:45;;;;;;;5.58;3.27;;;;;;;7.42;100.00;98378.26;1725467;82;21045;-74
2021/01/01 07:41:14;;;;;;;4.37;3.12;;;;;;;7.43;100.00;98376.33;1720207;83;21503;-72
2021/01/01 07:43:41;;;;;;;4.85;3.17;;;;;;;7.42;100.00;98380.98;1736461;81;21087;-74
2021/01/01 07:46:10;;;;;;;15.40;7.65;;;;;;;7.42;100.00;98387.81;1765469;81;21530;-73
2021/01/01 07:48:37;;;;;;;6.42;4.37;;;;;;;7.46;100.00;98394.80;1765212;81;21789;-74
2021/01/01 07:51:08;;;;;;;8.73;4.53;;;;;;;7.48;100.00;98389.81;1725720;81;21595;-75
2021/01/01 07:53:37;;;;;;;9.25;4.92;;;;;;;7.50;100.00;98397.92;1742479;82;20978;-75
2021/01/01 07:56:07;;;;;;;5.92;3.65;;;;;;;7.51;100.00;98404.96;1738439;82;21177;-73
2021/01/01 07:58:38;;;;;;;12.60;6.90;;;;;;;7.51;100.00;98400.87;1742532;82;21485;-74
2021/01/01 08:01:07;;;;;;;18.45;9.73;;;;;;;7.53;100.00;98401.34;1703198;82;21447;-77
2021/01/01 08:03:37;;;;;;;14.40;8.45;;;;;;;7.55;100.00;98403.75;1739357;82;21017;-80
2021/01/01 08:06:07;;;;;;;12.43;7.42;;;;;;;7.55;100.00;98410.02;1741202;82;21237;-81
2021/01/01 08:08:34;;;;;;;5.95;4.08;;;;;;;7.56;100.00;98409.45;1741332;81;21010;-82
2021/01/01 08:11:02;;;;;;;8.68;5.10;;;;;;;7.58;100.00;98419.49;1716529;81;21112;-77
2021/01/01 08:13:31;;;;;;;8.20;4.05;;;;;;;7.58;100.00;98424.39;1711696;83;21479;-75
2021/01/01 08:16:14;;;;;;;10.88;5.87;;;;;;;7.59;100.00;98437.48;1711534;83;21094;-84
2021/01/01 08:18:42;;;;;;;11.22;6.30;;;;;;;7.59;100.00;98430.09;1711670;83;21349;-75
2021/01/01 08:21:09;;;;;;;13.22;7.50;;;;;;;7.60;100.00;98432.27;1713769;83;20942;-77
2021/01/01 08:24:07;;;;;;;24.47;11.25;;;;;;;7.59;100.00;98435.56;1715564;82;21187;-75
2021/01/01 08:26:37;;;;;;;89.10;31.93;;;;;;;7.60;100.00;98437.73;1724763;83;21581;-76
2021/01/01 08:29:10;;;;;;;12.37;6.33;;;;;;;7.62;100.00;98439.01;1717135;82;21533;-73
2021/01/01 08:31:38;;;;;;;13.85;9.23;;;;;;;7.64;100.00;98440.05;1716708;82;21065;-75
2021/01/01 08:34:05;;;;;;;5.92;4.08;;;;;;;7.66;100.00;98450.66;1735678;82;21175;-72
2021/01/01 08:36:34;;;;;;;9.03;4.33;;;;;;;7.67;100.00;98448.97;1721036;82;21616;-74
2021/01/01 08:39:10;;;;;;;9.03;4.80;;;;;;;7.67;100.00;98454.43;1741333;82;21223;-73
2021/01/01 08:41:47;;;;;;;7.62;4.45;;;;;;;7.68;100.00;98460.13;1741018;81;21164;-72
2021/01/01 08:44:16;;;;;;;10.88;5.65;;;;;;;7.68;100.00;98464.80;1736369;82;21008;-86
2021/01/01 08:46:44;;;;;;;7.22;4.83;;;;;;;7.67;100.00;98462.63;1714859;82;21137;-78
2021/01/01 08:49:15;;;;;;;6.95;4.67;;;;;;;7.67;100.00;98469.45;1728542;82;21077;-75
2021/01/01 08:51:45;;;;;;;9.98;5.70;;;;;;;7.66;100.00;98467.84;1711898;83;21426;-78
2021/01/01 08:54:24;;;;;;;7.05;5.15;;;;;;;7.64;100.00;98476.92;1711819;83;21123;-81
2021/01/01 08:56:59;;;;;;;7.37;5.00;;;;;;;7.62;100.00;98476.45;1711619;83;21010;-77
2021/01/01 08:59:28;;;;;;;7.45;4.95;;;;;;;7.59;100.00;98483.36;1719785;82;21087;-72
2021/01/01 09:01:56;;;;;;;7.10;4.85;;;;;;;7.59;100.00;98485.28;1739335;82;21141;-73
2021/01/01 09:04:25;;;;;;;6.80;4.70;;;;;;;7.58;100.00;98491.87;1744262;81;21635;-83
2021/01/01 09:07:02;;;;;;;11.03;5.75;;;;;;;7.57;100.00;98488.89;1755926;81;20959;-76
2021/01/01 09:09:32;;;;;;;7.15;4.47;;;;;;;7.56;100.00;98490.83;1738976;82;20931;-77
2021/01/01 09:12:19;;;;;;;7.58;4.00;;;;;;;7.56;100.00;98492.19;1738426;82;21092;-73
2021/01/01 09:14:56;;;;;;;8.65;4.55;;;;;;;7.56;100.00;98492.19;1738928;82;21645;-75
2021/01/01 09:17:25;;;;;;;8.38;4.28;;;;;;;7.55;100.00;98496.05;1755198;81;21198;-75
2021/01/01 09:20:07;;;;;;;6.28;3.80;;;;;;;7.56;100.00;98495.48;1742044;82;21167;-76
2021/01/01 09:22:36;;;;;;;;;;;;;;;7.57;100.00;98491.63;1713518;82;21044;-73
2021/01/01 09:25:22;;;;;;;5.53;3.55;;;;;;;7.62;100.00;98492.84;1710401;83;20227;-74
2021/01/01 09:27:51;;;;;;;5.15;3.17;;;;;;;7.68;100.00;98490.18;1723664;83;21089;-72
2021/01/01 09:30:23;;;;;;;5.60;3.67;;;;;;;7.75;100.00;98490.50;1739816;81;21358;-71
2021/01/01 09:32:53;;;;;;;4.03;2.80;;;;;;;7.75;100.00;98491.06;1739598;81;20967;-69
2021/01/01 09:35:22;;;;;;;3.92;3.20;;;;;;;7.81;100.00;98491.14;1739880;82;20927;-70
2021/01/01 09:37:54;;;;;;;5.28;3.33;;;;;;;7.86;100.00;98496.44;1739819;81;21133;-70
2021/01/01 09:40:25;;;;;;;4.45;2.70;;;;;;;7.88;100.00;98494.19;1740154;82;21093;-72
2021/01/01 09:42:54;;;;;;;8.60;4.00;;;;;;;7.90;100.00;98500.14;1739803;81;21210;-75
2021/01/01 09:45:23;;;;;;;4.70;3.00;;;;;;;7.93;100.00;98492.09;1740378;82;20962;-78
2021/01/01 09:47:51;;;;;;;5.00;3.20;;;;;;;7.95;100.00;98491.77;1739897;81;21086;-76
2021/01/01 09:50:18;;;;;;;4.45;3.60;;;;;;;7.99;100.00;98497.39;1739935;82;21481;-78
2021/01/01 09:52:47;;;;;;;5.28;2.85;;;;;;;8.03;100.00;98499.72;1740322;82;21129;-77
2021/01/01 09:55:15;;;;;;;4.75;2.70;;;;;;;8.05;100.00;98500.20;1752713;81;22331;-74
2021/01/01 09:57:43;;;;;;;4.58;3.33;;;;;;;8.02;100.00;98498.91;1761125;81;21604;-75
2021/01/01 10:00:14;;;;;;;6.85;3.55;;;;;;;7.98;100.00;98506.16;1741371;81;21037;-80
2021/01/01 10:02:44;;;;;;;5.30;3.92;;;;;;;7.91;100.00;98506.64;1755313;81;21642;-78
2021/01/01 10:05:12;;;;;;;4.92;3.42;;;;;;;7.89;100.00;98512.99;1729004;81;21237;-76
2021/01/01 10:07:40;;;;;;;6.08;3.75;;;;;;;7.85;100.00;98514.77;1676870;84;22822;-75
2021/01/01 10:10:11;;;;;;;6.35;3.67;;;;;;;7.84;100.00;98513.16;1711600;83;21127;-77
2021/01/01 10:12:39;;;;;;;5.62;3.33;;;;;;;7.86;100.00;98521.03;1711525;83;21095;-78
2021/01/01 10:15:07;;;;;;;6.90;4.45;;;;;;;7.84;100.00;98522.72;1711724;83;21132;-79
2021/01/01 10:17:35;;;;;;;5.35;3.45;;;;;;;7.81;100.00;98520.63;1711436;83;21156;-77
2021/01/01 10:20:05;;;;;;;11.38;5.72;;;;;;;7.80;100.00;98525.05;1711611;83;21212;-79
2021/01/01 10:22:33;;;;;;;9.20;6.20;;;;;;;7.76;100.00;98535.02;1711797;83;21482;-74
2021/01/01 10:25:03;;;;;;;11.75;7.08;;;;;;;7.70;100.00;98534.38;1711468;83;21064;-74
2021/01/01 10:27:30;;;;;;;10.88;6.90;;;;;;;7.60;100.00;98543.69;1711869;82;21030;-75
2021/01/01 10:29:58;;;;;;;10.90;6.72;;;;;;;7.53;100.00;98545.28;1715281;81;21088;-72
2021/01/01 10:32:26;;;;;;;10.65;6.50;;;;;;;7.43;99.52;98539.59;1685261;84;21380;-74
2021/01/01 10:34:54;;;;;;;11.08;7.08;;;;;;;7.34;99.14;98541.51;1724053;83;21627;-73
2021/01/01 10:37:21;;;;;;;10.85;6.90;;;;;;;7.29;99.03;98547.92;1719471;83;20947;-73
2021/01/01 10:39:49;;;;;;;9.48;6.58;;;;;;;7.25;98.53;98551.05;1714629;83;21073;-73
2021/01/01 10:42:17;;;;;;;14.10;7.62;;;;;;;7.22;98.06;98554.41;1723724;82;20998;-74
2021/01/01 10:44:44;;;;;;;11.08;7.60;;;;;;;7.19;98.01;98553.68;1726694;82;21368;-69
2021/01/01 10:47:14;;;;;;;11.70;8.30;;;;;;;7.21;98.22;98552.00;1688211;84;21160;-78
2021/01/01 10:49:43;;;;;;;13.05;8.78;;;;;;;7.25;98.34;98548.88;1694680;84;21203;-71
2021/01/01 10:52:11;;;;;;;14.43;8.98;;;;;;;7.28;97.77;98553.14;1718432;83;21081;-71
2021/01/01 10:54:39;;;;;;;22.77;10.95;;;;;;;7.32;97.76;98551.94;1723753;83;21481;-75
2021/01/01 10:57:06;;;;;;;25.80;12.90;;;;;;;7.33;97.54;98559.58;1722543;83;21008;-75
2021/01/01 10:59:35;;;;;;;17.82;10.32;;;;;;;7.35;97.59;98556.77;1695896;83;21152;-76
2021/01/01 11:02:04;;;;;;;13.32;8.90;;;;;;;7.39;97.56;98558.30;1694804;84;21171;-74
2021/01/01 11:04:31;;;;;;;13.15;8.83;;;;;;;7.42;97.28;98554.94;1717836;81;21500;-73
2021/01/01 11:07:00;;;;;;;18.75;9.70;;;;;;;7.46;97.39;98555.91;1765619;81;21054;-72
2021/01/01 11:09:29;;;;;;;15.13;9.03;;;;;;;7.51;97.44;98550.30;1755333;81;22269;-72
2021/01/01 11:11:59;;;;;;;13.32;8.30;;;;;;;7.55;96.77;98554.77;1733629;82;20978;-72
2021/01/01 12:22:45;;;;;;;18.42;10.30;;;;;;;6.73;91.23;98634.64;1765828;80;21031;-74
2021/01/01 12:25:11;;;;;;;15.48;10.50;;;;;;;6.66;91.30;98634.28;1742664;81;21125;-76
2021/01/01 12:27:39;;;;;;;16.12;10.05;;;;;;;6.62;91.76;98635.47;1742008;81;20920;-69
2021/01/01 12:30:07;;;;;;;19.92;10.48;;;;;;;6.59;91.67;98638.01;1765451;81;21078;-74
2021/01/01 12:32:39;;;;;;;12.63;8.15;;;;;;;6.52;90.96;98650.72;1765033;81;21573;-75
2021/01/01 12:35:10;;;;;;;14.98;8.85;;;;;;;6.42;90.90;98655.05;1753409;81;21196;-77
2021/01/01 12:37:39;;;;;;;12.10;7.60;;;;;;;6.37;90.60;98659.27;1735496;82;21029;-73
2021/01/01 12:40:09;;;;;;;12.53;7.75;;;;;;;6.29;90.64;98661.39;1743399;81;21635;-79
2021/01/01 12:42:36;;;;;;;14.93;7.90;;;;;;;6.24;90.78;98661.52;1735472;82;21136;-72